sensor_id;sensor_type;location;lat;lon;timestamp;pressure;altitude;pressure_sealevel;temperature;humidity
17362;BME280;8798;51.938;4.348;2023-09-19T00:00:38;100171.50;;;16.30;86.65
17362;BME280;8798;51.938;4.348;2023-09-19T00:03:07;100186.69;;;16.31;86.27
17362;BME280;8798;51.938;4.348;2023-09-19T00:05:37;100207.38;;;16.32;86.48
17362;BME280;8798;51.938;4.348;2023-09-19T00:08:06;100212.56;;;16.34;86.18
17362;BME280;8798;51.938;4.348;2023-09-19T00:10:34;100228.63;;;16.36;86.40
17362;BME280;8798;51.938;4.348;2023-09-19T00:13:04;100236.75;;;16.36;86.44
17362;BME280;8798;51.938;4.348;2023-09-19T00:15:37;100221.75;;;16.33;86.22
17362;BME280;8798;51.938;4.348;2023-09-19T00:18:06;100234.47;;;16.32;86.00
17362;BME280;8798;51.938;4.348;2023-09-19T00:20:36;100232.78;;;16.31;86.05
17362;BME280;8798;51.938;4.348;2023-09-19T00:23:05;100240.91;;;16.31;86.03
17362;BME280;8798;51.938;4.348;2023-09-19T00:25:36;100236.72;;;16.29;86.07
17362;BME280;8798;51.938;4.348;2023-09-19T00:28:06;100246.75;;;16.28;85.95
17362;BME280;8798;51.938;4.348;2023-09-19T00:30:34;100248.63;;;16.28;86.08
17362;BME280;8798;51.938;4.348;2023-09-19T00:33:05;100254.06;;;16.28;86.02
17362;BME280;8798;51.938;4.348;2023-09-19T00:35:34;100259.47;;;16.28;85.70
17362;BME280;8798;51.938;4.348;2023-09-19T00:38:03;100262.19;;;16.28;85.81
17362;BME280;8798;51.938;4.348;2023-09-19T00:40:33;100268.44;;;16.28;85.70
17362;BME280;8798;51.938;4.348;2023-09-19T00:43:02;100283.03;;;16.27;85.75
17362;BME280;8798;51.938;4.348;2023-09-19T00:45:31;100296.38;;;16.29;85.60
17362;BME280;8798;51.938;4.348;2023-09-19T00:48:01;100304.31;;;16.30;85.60
17362;BME280;8798;51.938;4.348;2023-09-19T00:50:41;100302.63;;;16.29;85.64
17362;BME280;8798;51.938;4.348;2023-09-19T00:53:14;100311.81;;;16.28;85.78
17362;BME280;8798;51.938;4.348;2023-09-19T00:55:45;100318.88;;;16.29;85.76
17362;BME280;8798;51.938;4.348;2023-09-19T00:58:13;100339.13;;;16.33;85.55
17362;BME280;8798;51.938;4.348;2023-09-19T01:00:43;100370.88;;;16.40;85.55
17362;BME280;8798;51.938;4.348;2023-09-19T01:03:11;100379.84;;;16.40;85.26
17362;BME280;8798;51.938;4.348;2023-09-19T01:05:41;100380.03;;;16.39;85.45
17362;BME280;8798;51.938;4.348;2023-09-19T01:08:10;100373.97;;;16.37;85.58
17362;BME280;8798;51.938;4.348;2023-09-19T01:10:44;100392.75;;;16.38;85.44
17362;BME280;8798;51.938;4.348;2023-09-19T01:13:22;100408.63;;;16.41;85.34
17362;BME280;8798;51.938;4.348;2023-09-19T01:16:03;100420.09;;;16.43;85.28
17362;BME280;8798;51.938;4.348;2023-09-19T01:18:40;100434.47;;;16.44;85.42
17362;BME280;8798;51.938;4.348;2023-09-19T01:21:12;100441.59;;;16.45;85.46
17362;BME280;8798;51.938;4.348;2023-09-19T01:26:52;100447.03;;;16.45;85.15
17362;BME280;8798;51.938;4.348;2023-09-19T01:29:33;100452.44;;;16.45;85.02
17362;BME280;8798;51.938;4.348;2023-09-19T01:32:08;100456.19;;;16.44;85.04
17362;BME280;8798;51.938;4.348;2023-09-19T01:34:44;100454.50;;;16.43;85.37
17362;BME280;8798;51.938;4.348;2023-09-19T01:37:14;100444.91;;;16.40;85.31
17362;BME280;8798;51.938;4.348;2023-09-19T01:39:47;100446.78;;;16.40;84.84
17362;BME280;8798;51.938;4.348;2023-09-19T01:42:23;100453.44;;;16.37;85.14
17362;BME280;8798;51.938;4.348;2023-09-19T01:44:59;100444.44;;;16.37;85.05
17362;BME280;8798;51.938;4.348;2023-09-19T01:47:34;100441.97;;;16.35;85.13
17362;BME280;8798;51.938;4.348;2023-09-19T01:50:12;100446.56;;;16.34;84.91
17362;BME280;8798;51.938;4.348;2023-09-19T01:52:49;100448.22;;;16.36;85.04
17362;BME280;8798;51.938;4.348;2023-09-19T01:55:20;100455.72;;;16.33;85.00
17362;BME280;8798;51.938;4.348;2023-09-19T01:57:55;100446.75;;;16.33;84.88
17362;BME280;8798;51.938;4.348;2023-09-19T02:00:28;100454.03;;;16.32;85.08
17362;BME280;8798;51.938;4.348;2023-09-19T02:02:59;100455.91;;;16.32;84.73
17362;BME280;8798;51.938;4.348;2023-09-19T02:05:28;100454.22;;;16.31;84.99
17362;BME280;8798;51.938;4.348;2023-09-19T02:07:57;100449.00;;;16.29;84.77
17362;BME280;8798;51.938;4.348;2023-09-19T02:10:25;100455.47;;;16.28;84.52
17362;BME280;8798;51.938;4.348;2023-09-19T02:12:53;100465.25;;;16.29;84.77
17362;BME280;8798;51.938;4.348;2023-09-19T02:15:21;100479.47;;;16.31;84.76
17362;BME280;8798;51.938;4.348;2023-09-19T02:17:50;100475.72;;;16.32;84.47
17362;BME280;8798;51.938;4.348;2023-09-19T02:20:19;100486.56;;;16.32;84.73
17362;BME280;8798;51.938;4.348;2023-09-19T02:22:47;100493.66;;;16.33;84.66
17362;BME280;8798;51.938;4.348;2023-09-19T02:25:16;100499.06;;;16.33;84.51
17362;BME280;8798;51.938;4.348;2023-09-19T02:27:46;100491.16;;;16.32;84.44
17362;BME280;8798;51.938;4.348;2023-09-19T02:30:14;100501.78;;;16.33;84.35
17362;BME280;8798;51.938;4.348;2023-09-19T02:32:42;100502.84;;;16.32;84.53
17362;BME280;8798;51.938;4.348;2023-09-19T02:35:11;100514.31;;;16.34;84.33
17362;BME280;8798;51.938;4.348;2023-09-19T02:37:42;100540.00;;;16.39;84.40
17362;BME280;8798;51.938;4.348;2023-09-19T02:40:15;100557.53;;;16.43;84.22
17362;BME280;8798;51.938;4.348;2023-09-19T02:42:46;100572.59;;;16.45;84.30
17362;BME280;8798;51.938;4.348;2023-09-19T02:45:16;100588.25;;;16.50;84.40
17362;BME280;8798;51.938;4.348;2023-09-19T02:47:46;100601.41;;;16.53;84.35
17362;BME280;8798;51.938;4.348;2023-09-19T02:50:15;100622.72;;;16.56;83.95
17362;BME280;8798;51.938;4.348;2023-09-19T02:52:46;100644.66;;;16.61;83.79
17362;BME280;8798;51.938;4.348;2023-09-19T02:55:16;100663.47;;;16.63;84.13
17362;BME280;8798;51.938;4.348;2023-09-19T02:57:47;100665.13;;;16.64;84.15
17362;BME280;8798;51.938;4.348;2023-09-19T03:00:16;100667.66;;;16.65;84.08
17362;BME280;8798;51.938;4.348;2023-09-19T03:02:53;100673.72;;;16.67;83.99
17362;BME280;8798;51.938;4.348;2023-09-19T03:05:22;100696.69;;;16.71;83.93
17362;BME280;8798;51.938;4.348;2023-09-19T03:07:52;100703.81;;;16.72;83.34
17362;BME280;8798;51.938;4.348;2023-09-19T03:10:22;100703.81;;;16.72;83.93
17362;BME280;8798;51.938;4.348;2023-09-19T03:12:52;100709.88;;;16.74;83.70
17362;BME280;8798;51.938;4.348;2023-09-19T03:15:20;100709.66;;;16.76;83.62
17362;BME280;8798;51.938;4.348;2023-09-19T03:17:49;100733.75;;;16.79;83.56
17362;BME280;8798;51.938;4.348;2023-09-19T03:20:19;100731.88;;;16.80;83.50
17362;BME280;8798;51.938;4.348;2023-09-19T03:22:48;100749.63;;;16.82;83.28
17362;BME280;8798;51.938;4.348;2023-09-19T03:25:17;100747.75;;;16.83;83.06
17362;BME280;8798;51.938;4.348;2023-09-19T03:31:37;100760.94;;;16.86;83.06
17362;BME280;8798;51.938;4.348;2023-09-19T03:34:05;100763.47;;;16.87;82.83
17362;BME280;8798;51.938;4.348;2023-09-19T03:36:33;100760.94;;;16.86;82.71
17362;BME280;8798;51.938;4.348;2023-09-19T03:39:01;100764.47;;;16.86;82.53
17362;BME280;8798;51.938;4.348;2023-09-19T03:41:33;100763.25;;;16.89;82.83
17362;BME280;8798;51.938;4.348;2023-09-19T03:44:03;100762.81;;;16.85;82.59
17362;BME280;8798;51.938;4.348;2023-09-19T03:46:31;100730.81;;;16.81;82.62
17362;BME280;8798;51.938;4.348;2023-09-19T03:48:59;100725.78;;;16.77;82.48
17362;BME280;8798;51.938;4.348;2023-09-19T03:51:27;100692.97;;;16.72;82.33
17362;BME280;8798;51.938;4.348;2023-09-19T03:53:55;100682.50;;;16.69;82.40
17362;BME280;8798;51.938;4.348;2023-09-19T03:56:23;100673.72;;;16.67;82.08
17362;BME280;8798;51.938;4.348;2023-09-19T03:58:53;100658.69;;;16.65;82.18
17362;BME280;8798;51.938;4.348;2023-09-19T04:01:22;100658.03;;;16.63;82.36
17362;BME280;8798;51.938;4.348;2023-09-19T04:03:50;100656.38;;;16.62;82.14
17362;BME280;8798;51.938;4.348;2023-09-19T04:06:20;100653.84;;;16.60;82.29
17362;BME280;8798;51.938;4.348;2023-09-19T04:08:48;100659.28;;;16.60;81.90
17362;BME280;8798;51.938;4.348;2023-09-19T04:11:16;100652.16;;;16.59;82.09
17362;BME280;8798;51.938;4.348;2023-09-19T04:13:44;100661.97;;;16.60;81.83
17362;BME280;8798;51.938;4.348;2023-09-19T04:16:13;100672.66;;;16.62;82.05
17362;BME280;8798;51.938;4.348;2023-09-19T04:18:42;100684.31;;;16.62;82.08
17362;BME280;8798;51.938;4.348;2023-09-19T04:21:10;100682.63;;;16.61;82.08
17362;BME280;8798;51.938;4.348;2023-09-19T04:23:38;100674.50;;;16.61;81.85
17362;BME280;8798;51.938;4.348;2023-09-19T04:26:06;100687.03;;;16.62;82.10
17362;BME280;8798;51.938;4.348;2023-09-19T04:28:34;100688.69;;;16.63;82.08
17362;BME280;8798;51.938;4.348;2023-09-19T04:31:05;100677.84;;;16.63;82.04
17362;BME280;8798;51.938;4.348;2023-09-19T04:33:36;100693.13;;;16.64;81.98
17362;BME280;8798;51.938;4.348;2023-09-19T04:36:04;100688.53;;;16.65;81.91
17362;BME280;8798;51.938;4.348;2023-09-19T04:38:54;100707.50;;;16.65;81.60
17362;BME280;8798;51.938;4.348;2023-09-19T04:41:22;100702.25;;;16.63;81.59
17362;BME280;8798;51.938;4.348;2023-09-19T04:43:51;100684.50;;;16.61;81.77
17362;BME280;8798;51.938;4.348;2023-09-19T04:46:19;100680.31;;;16.58;81.53
17362;BME280;8798;51.938;4.348;2023-09-19T04:48:49;100680.31;;;16.58;81.53
17362;BME280;8798;51.938;4.348;2023-09-19T04:51:18;100682.19;;;16.58;81.65
17362;BME280;8798;51.938;4.348;2023-09-19T04:53:47;100692.00;;;16.59;81.49
17362;BME280;8798;51.938;4.348;2023-09-19T04:56:16;100677.78;;;16.56;81.41
17362;BME280;8798;51.938;4.348;2023-09-19T04:58:44;100678.84;;;16.55;81.49
17362;BME280;8798;51.938;4.348;2023-09-19T05:01:12;100671.94;;;16.53;81.40
17362;BME280;8798;51.938;4.348;2023-09-19T05:03:42;100679.22;;;16.52;81.27
17362;BME280;8798;51.938;4.348;2023-09-19T05:06:12;100658.78;;;16.50;81.31
17362;BME280;8798;51.938;4.348;2023-09-19T05:08:40;100652.69;;;16.48;81.25
17362;BME280;8798;51.938;4.348;2023-09-19T05:11:09;100654.56;;;16.47;81.21
17362;BME280;8798;51.938;4.348;2023-09-19T05:13:37;100655.41;;;16.48;81.29
17362;BME280;8798;51.938;4.348;2023-09-19T05:16:06;100637.00;;;16.43;80.92
17362;BME280;8798;51.938;4.348;2023-09-19T05:18:37;100631.78;;;16.42;81.13
17362;BME280;8798;51.938;4.348;2023-09-19T05:21:05;100627.41;;;16.41;80.81
17362;BME280;8798;51.938;4.348;2023-09-19T05:23:35;100625.09;;;16.38;80.67
17362;BME280;8798;51.938;4.348;2023-09-19T05:26:05;100627.78;;;16.38;80.83
17362;BME280;8798;51.938;4.348;2023-09-19T05:28:33;100606.50;;;16.34;80.97
17362;BME280;8798;51.938;4.348;2023-09-19T05:31:01;100616.69;;;16.32;81.13
17362;BME280;8798;51.938;4.348;2023-09-19T05:33:30;100606.69;;;16.33;80.85
17362;BME280;8798;51.938;4.348;2023-09-19T05:35:59;100616.69;;;16.32;80.52
17362;BME280;8798;51.938;4.348;2023-09-19T05:38:29;100622.13;;;16.32;80.71
17362;BME280;8798;51.938;4.348;2023-09-19T05:41:01;100634.44;;;16.35;80.60
17362;BME280;8798;51.938;4.348;2023-09-19T05:43:32;100645.06;;;16.37;80.51
17362;BME280;8798;51.938;4.348;2023-09-19T05:46:01;100645.06;;;16.37;80.46
17362;BME280;8798;51.938;4.348;2023-09-19T05:48:29;100655.75;;;16.38;80.27
17362;BME280;8798;51.938;4.348;2023-09-19T05:50:58;100659.28;;;16.39;80.55
17362;BME280;8798;51.938;4.348;2023-09-19T05:53:27;100674.53;;;16.40;80.13
17362;BME280;8798;51.938;4.348;2023-09-19T05:55:56;100668.25;;;16.39;80.37
17362;BME280;8798;51.938;4.348;2023-09-19T05:58:29;100679.09;;;16.39;80.45
17362;BME280;8798;51.938;4.348;2023-09-19T06:00:59;100676.19;;;16.41;80.39
17362;BME280;8798;51.938;4.348;2023-09-19T06:03:33;100693.94;;;16.43;80.07
17362;BME280;8798;51.938;4.348;2023-09-19T06:06:05;100708.16;;;16.45;80.15
17362;BME280;8798;51.938;4.348;2023-09-19T06:08:33;100714.41;;;16.46;80.03
17362;BME280;8798;51.938;4.348;2023-09-19T06:11:01;100716.13;;;16.47;80.04
17362;BME280;8798;51.938;4.348;2023-09-19T06:13:31;100716.13;;;16.47;80.19
17362;BME280;8798;51.938;4.348;2023-09-19T06:16:00;100723.38;;;16.46;80.39
17362;BME280;8798;51.938;4.348;2023-09-19T06:18:31;100737.41;;;16.50;79.98
17362;BME280;8798;51.938;4.348;2023-09-19T06:21:00;100735.72;;;16.49;79.84
17362;BME280;8798;51.938;4.348;2023-09-19T06:23:34;100750.13;;;16.49;79.69
17362;BME280;8798;51.938;4.348;2023-09-19T06:26:02;100749.09;;;16.50;79.83
17362;BME280;8798;51.938;4.348;2023-09-19T06:28:35;100755.34;;;16.51;80.08
17362;BME280;8798;51.938;4.348;2023-09-19T06:31:03;100757.03;;;16.52;79.80
17362;BME280;8798;51.938;4.348;2023-09-19T06:33:37;100764.97;;;16.53;79.93
17362;BME280;8798;51.938;4.348;2023-09-19T06:36:07;100771.88;;;16.56;80.00
17362;BME280;8798;51.938;4.348;2023-09-19T06:38:35;100786.28;;;16.56;79.76
17362;BME280;8798;51.938;4.348;2023-09-19T06:41:03;100776.66;;;16.54;79.68
17362;BME280;8798;51.938;4.348;2023-09-19T06:43:35;100784.44;;;16.57;79.64
17362;BME280;8798;51.938;4.348;2023-09-19T06:46:04;100782.53;;;16.58;79.92
17362;BME280;8798;51.938;4.348;2023-09-19T06:48:34;100787.13;;;16.57;79.58
17362;BME280;8798;51.938;4.348;2023-09-19T06:51:02;100779.38;;;16.54;79.70
17362;BME280;8798;51.938;4.348;2023-09-19T06:53:32;100789.84;;;16.57;79.50
17362;BME280;8798;51.938;4.348;2023-09-19T06:56:01;100788.81;;;16.58;79.70
17362;BME280;8798;51.938;4.348;2023-09-19T06:58:30;100798.81;;;16.58;79.68
17362;BME280;8798;51.938;4.348;2023-09-19T07:01:00;100798.81;;;16.58;79.67
17362;BME280;8798;51.938;4.348;2023-09-19T07:03:30;100813.88;;;16.60;79.77
17362;BME280;8798;51.938;4.348;2023-09-19T07:06:00;100836.66;;;16.66;79.48
17362;BME280;8798;51.938;4.348;2023-09-19T07:08:31;100849.84;;;16.69;79.57
17362;BME280;8798;51.938;4.348;2023-09-19T07:10:59;100861.16;;;16.72;79.51
17362;BME280;8798;51.938;4.348;2023-09-19T07:13:27;100875.38;;;16.74;79.51
17362;BME280;8798;51.938;4.348;2023-09-19T07:15:59;100893.97;;;16.77;79.60
17362;BME280;8798;51.938;4.348;2023-09-19T07:18:27;100891.28;;;16.77;79.43
17362;BME280;8798;51.938;4.348;2023-09-19T07:20:57;100906.16;;;16.82;79.62
17362;BME280;8798;51.938;4.348;2023-09-19T07:23:27;100931.69;;;16.87;79.41
17362;BME280;8798;51.938;4.348;2023-09-19T07:25:57;100954.50;;;16.93;79.46
17362;BME280;8798;51.938;4.348;2023-09-19T07:28:26;100964.13;;;16.95;79.31
17362;BME280;8798;51.938;4.348;2023-09-19T07:30:55;100971.88;;;16.98;79.54
17362;BME280;8798;51.938;4.348;2023-09-19T07:33:24;100987.59;;;17.03;79.30
17362;BME280;8798;51.938;4.348;2023-09-19T07:35:54;101001.84;;;17.05;79.16
17362;BME280;8798;51.938;4.348;2023-09-19T07:38:22;101013.16;;;17.09;79.34
17362;BME280;8798;51.938;4.348;2023-09-19T07:40:50;101024.66;;;17.11;79.19
17362;BME280;8798;51.938;4.348;2023-09-19T07:43:18;101023.63;;;17.12;79.01
17362;BME280;8798;51.938;4.348;2023-09-19T07:45:47;101036.81;;;17.15;79.28
17362;BME280;8798;51.938;4.348;2023-09-19T07:48:16;101054.44;;;17.19;79.04
17362;BME280;8798;51.938;4.348;2023-09-19T07:50:45;101052.38;;;17.21;79.16
17362;BME280;8798;51.938;4.348;2023-09-19T07:53:14;101060.13;;;17.24;79.19
17362;BME280;8798;51.938;4.348;2023-09-19T07:55:44;101068.94;;;17.26;79.00
17362;BME280;8798;51.938;4.348;2023-09-19T07:58:15;101081.28;;;17.29;78.83
17362;BME280;8798;51.938;4.348;2023-09-19T08:00:43;101082.78;;;17.31;78.80
17362;BME280;8798;51.938;4.348;2023-09-19T08:03:13;101116.09;;;17.40;78.67
17362;BME280;8798;51.938;4.348;2023-09-19T08:05:44;101157.38;;;17.50;78.77
17362;BME280;8798;51.938;4.348;2023-09-19T08:08:14;101167.66;;;17.55;78.61
17362;BME280;8798;51.938;4.348;2023-09-19T08:10:42;101199.31;;;17.62;78.61
17362;BME280;8798;51.938;4.348;2023-09-19T08:13:13;101228.09;;;17.72;78.71
17362;BME280;8798;51.938;4.348;2023-09-19T08:15:43;101259.94;;;17.78;78.53
17362;BME280;8798;51.938;4.348;2023-09-19T08:18:12;101281.63;;;17.86;78.47
17362;BME280;8798;51.938;4.348;2023-09-19T08:20:40;101309.72;;;17.93;78.27
17362;BME280;8798;51.938;4.348;2023-09-19T08:23:09;101319.84;;;17.99;78.47
17362;BME280;8798;51.938;4.348;2023-09-19T08:25:38;101325.09;;;18.01;78.25
17362;BME280;8798;51.938;4.348;2023-09-19T08:28:06;101328.47;;;18.03;78.00
17362;BME280;8798;51.938;4.348;2023-09-19T08:30:38;101322.00;;;18.04;78.03
17362;BME280;8798;51.938;4.348;2023-09-19T08:33:07;101311.28;;;18.02;77.87
17362;BME280;8798;51.938;4.348;2023-09-19T08:35:36;101287.22;;;17.99;77.91
17362;BME280;8798;51.938;4.348;2023-09-19T08:38:04;101264.19;;;17.95;77.84
17362;BME280;8798;51.938;4.348;2023-09-19T08:40:33;101247.00;;;17.95;77.74
17362;BME280;8798;51.938;4.348;2023-09-19T08:43:08;101216.00;;;17.89;77.82
17362;BME280;8798;51.938;4.348;2023-09-19T08:45:37;101206.16;;;17.88;77.59
17362;BME280;8798;51.938;4.348;2023-09-19T08:48:20;101222.75;;;17.93;77.70
17362;BME280;8798;51.938;4.348;2023-09-19T08:50:54;101251.47;;;18.02;77.33
17362;BME280;8798;51.938;4.348;2023-09-19T08:53:32;101327.59;;;18.17;77.35
17362;BME280;8798;51.938;4.348;2023-09-19T08:56:08;101367.53;;;18.32;77.43
17362;BME280;8798;51.938;4.348;2023-09-19T08:58:44;101379.91;;;18.34;77.04
17362;BME280;8798;51.938;4.348;2023-09-19T09:01:15;101388.16;;;18.41;76.86
17362;BME280;8798;51.938;4.348;2023-09-19T09:03:45;101393.22;;;18.44;76.87
17362;BME280;8798;51.938;4.348;2023-09-19T09:06:15;101385.88;;;18.44;76.96
17362;BME280;8798;51.938;4.348;2023-09-19T09:08:45;101396.41;;;18.47;76.90
17362;BME280;8798;51.938;4.348;2023-09-19T09:11:15;101399.78;;;18.50;76.66
17362;BME280;8798;51.938;4.348;2023-09-19T09:13:46;101379.03;;;18.48;76.64
17362;BME280;8798;51.938;4.348;2023-09-19T09:16:14;101387.47;;;18.54;76.62
17362;BME280;8798;51.938;4.348;2023-09-19T09:18:46;101406.78;;;18.59;76.35
17362;BME280;8798;51.938;4.348;2023-09-19T09:21:19;101426.97;;;18.64;76.64
17362;BME280;8798;51.938;4.348;2023-09-19T09:23:48;101426.59;;;18.67;76.53
17362;BME280;8798;51.938;4.348;2023-09-19T09:26:42;101460.47;;;18.80;76.10
17362;BME280;8798;51.938;4.348;2023-09-19T09:29:12;101519.53;;;18.94;76.29
17362;BME280;8798;51.938;4.348;2023-09-19T09:31:45;101577.53;;;19.09;76.30
17362;BME280;8798;51.938;4.348;2023-09-19T09:34:15;101622.09;;;19.23;76.13
17362;BME280;8798;51.938;4.348;2023-09-19T09:36:48;101670.47;;;19.36;76.14
17362;BME280;8798;51.938;4.348;2023-09-19T09:39:29;101683.19;;;19.44;75.78
17362;BME280;8798;51.938;4.348;2023-09-19T09:41:59;101688.03;;;19.48;75.44
17362;BME280;8798;51.938;4.348;2023-09-19T09:44:28;101711.66;;;19.56;75.59
17362;BME280;8798;51.938;4.348;2023-09-19T09:46:59;101721.78;;;19.62;75.45
17362;BME280;8798;51.938;4.348;2023-09-19T09:49:48;101722.09;;;19.67;75.36
17362;BME280;8798;51.938;4.348;2023-09-19T09:52:21;101734.31;;;19.71;75.33
17362;BME280;8798;51.938;4.348;2023-09-19T09:54:58;101705.34;;;19.70;75.07
17362;BME280;8798;51.938;4.348;2023-09-19T09:57:27;101708.72;;;19.72;75.03
17362;BME280;8798;51.938;4.348;2023-09-19T09:59:59;101692.38;;;19.72;74.94
17362;BME280;8798;51.938;4.348;2023-09-19T10:02:43;101643.03;;;19.67;74.90
17362;BME280;8798;51.938;4.348;2023-09-19T10:05:18;101632.94;;;19.68;74.60
17362;BME280;8798;51.938;4.348;2023-09-19T10:07:55;101637.00;;;19.72;74.35
17362;BME280;8798;51.938;4.348;2023-09-19T10:10:31;101610.97;;;19.69;74.40
17362;BME280;8798;51.938;4.348;2023-09-19T10:13:12;101581.50;;;19.65;74.65
17362;BME280;8798;51.938;4.348;2023-09-19T10:15:48;101601.53;;;19.72;74.29
17362;BME280;8798;51.938;4.348;2023-09-19T10:18:20;101606.44;;;19.76;74.02
17362;BME280;8798;51.938;4.348;2023-09-19T10:20:49;101627.09;;;19.86;73.90
17362;BME280;8798;51.938;4.348;2023-09-19T10:23:18;101604.41;;;19.85;74.03
17362;BME280;8798;51.938;4.348;2023-09-19T10:25:50;101597.28;;;19.84;73.71
17362;BME280;8798;51.938;4.348;2023-09-19T10:28:20;101627.78;;;19.94;73.77
17362;BME280;8798;51.938;4.348;2023-09-19T10:30:51;101631.00;;;19.98;73.60
17362;BME280;8798;51.938;4.348;2023-09-19T10:33:21;101604.94;;;19.95;73.55
17362;BME280;8798;51.938;4.348;2023-09-19T10:35:53;101575.31;;;19.92;73.20
17362;BME280;8798;51.938;4.348;2023-09-19T10:38:23;101581.03;;;19.97;73.25
17362;BME280;8798;51.938;4.348;2023-09-19T10:40:53;101583.38;;;20.01;72.96
17362;BME280;8798;51.938;4.348;2023-09-19T10:43:25;101587.59;;;20.03;73.04
17362;BME280;8798;51.938;4.348;2023-09-19T10:45:59;101587.84;;;20.08;73.00
17362;BME280;8798;51.938;4.348;2023-09-19T10:48:29;101611.22;;;20.17;72.80
17362;BME280;8798;51.938;4.348;2023-09-19T10:51:05;101631.22;;;20.25;72.89
17362;BME280;8798;51.938;4.348;2023-09-19T10:53:43;101688.44;;;20.39;72.46
17362;BME280;8798;51.938;4.348;2023-09-19T10:56:19;101742.63;;;20.57;72.26
17362;BME280;8798;51.938;4.348;2023-09-19T10:58:49;101801.41;;;20.75;72.18
17362;BME280;8798;51.938;4.348;2023-09-19T11:01:19;101804.56;;;20.78;72.26
17362;BME280;8798;51.938;4.348;2023-09-19T11:03:48;101833.25;;;20.89;72.34
17362;BME280;8798;51.938;4.348;2023-09-19T11:06:39;101822.97;;;20.91;72.19
17362;BME280;8798;51.938;4.348;2023-09-19T11:09:08;101809.97;;;20.93;72.15
17362;BME280;8798;51.938;4.348;2023-09-19T11:11:52;101860.97;;;21.08;71.81
17362;BME280;8798;51.938;4.348;2023-09-19T11:14:38;101851.53;;;21.10;71.67
17362;BME280;8798;51.938;4.348;2023-09-19T11:17:35;101795.13;;;21.02;71.42
17362;BME280;8798;51.938;4.348;2023-09-19T11:20:25;101724.63;;;20.91;71.12
17362;BME280;8798;51.938;4.348;2023-09-19T11:23:21;101671.00;;;20.83;71.13
17362;BME280;8798;51.938;4.348;2023-09-19T11:25:53;101638.63;;;20.80;70.92
17362;BME280;8798;51.938;4.348;2023-09-19T11:28:29;101600.16;;;20.75;70.74
17362;BME280;8798;51.938;4.348;2023-09-19T11:30:57;101558.47;;;20.67;70.93
17362;BME280;8798;51.938;4.348;2023-09-19T11:33:28;101532.41;;;20.64;70.65
17362;BME280;8798;51.938;4.348;2023-09-19T11:36:02;101486.84;;;20.58;70.75
17362;BME280;8798;51.938;4.348;2023-09-19T11:38:58;101448.72;;;20.50;70.35
17362;BME280;8798;51.938;4.348;2023-09-19T11:41:37;101409.25;;;20.46;70.48
17362;BME280;8798;51.938;4.348;2023-09-19T11:44:36;101411.75;;;20.47;70.61
17362;BME280;8798;51.938;4.348;2023-09-19T11:47:06;101415.78;;;20.51;70.18
17362;BME280;8798;51.938;4.348;2023-09-19T11:49:40;101440.19;;;20.59;70.33
17362;BME280;8798;51.938;4.348;2023-09-19T11:52:09;101447.13;;;20.62;70.29
17362;BME280;8798;51.938;4.348;2023-09-19T11:54:40;101471.75;;;20.69;70.20
17362;BME280;8798;51.938;4.348;2023-09-19T11:57:11;101473.03;;;20.73;70.16
17362;BME280;8798;51.938;4.348;2023-09-19T11:59:41;101511.53;;;20.85;70.26
17362;BME280;8798;51.938;4.348;2023-09-19T12:02:16;101569.19;;;21.03;69.88
17362;BME280;8798;51.938;4.348;2023-09-19T12:04:57;101659.47;;;21.23;70.12
17362;BME280;8798;51.938;4.348;2023-09-19T12:07:26;101692.53;;;21.35;70.03
17362;BME280;8798;51.938;4.348;2023-09-19T12:10:03;101675.91;;;21.36;69.70
17362;BME280;8798;51.938;4.348;2023-09-19T12:12:32;101662.25;;;21.36;69.39
17362;BME280;8798;51.938;4.348;2023-09-19T12:15:00;101625.44;;;21.32;69.63
17362;BME280;8798;51.938;4.348;2023-09-19T12:17:35;101617.25;;;21.32;69.48
17362;BME280;8798;51.938;4.348;2023-09-19T12:20:06;101606.09;;;21.34;69.58
17362;BME280;8798;51.938;4.348;2023-09-19T12:22:40;101582.13;;;21.29;69.62
17362;BME280;8798;51.938;4.348;2023-09-19T12:25:11;101558.56;;;21.28;69.74
17362;BME280;8798;51.938;4.348;2023-09-19T12:27:43;101551.00;;;21.30;68.93
17362;BME280;8798;51.938;4.348;2023-09-19T12:30:14;101515.44;;;21.23;69.21
17362;BME280;8798;51.938;4.348;2023-09-19T12:32:47;101489.38;;;21.21;68.88
17362;BME280;8798;51.938;4.348;2023-09-19T12:35:28;101512.75;;;21.30;69.18
17362;BME280;8798;51.938;4.348;2023-09-19T12:37:57;101506.22;;;21.31;68.63
17362;BME280;8798;51.938;4.348;2023-09-19T12:40:25;101524.34;;;21.39;69.04
17362;BME280;8798;51.938;4.348;2023-09-19T12:42:57;101522.47;;;21.39;68.56
17362;BME280;8798;51.938;4.348;2023-09-19T12:45:26;101519.31;;;21.42;68.43
17362;BME280;8798;51.938;4.348;2023-09-19T12:48:17;101529.41;;;21.48;68.74
17362;BME280;8798;51.938;4.348;2023-09-19T12:51:02;101495.53;;;21.43;68.56
17362;BME280;8798;51.938;4.348;2023-09-19T12:53:34;101466.72;;;21.40;68.35
17362;BME280;8798;51.938;4.348;2023-09-19T12:56:07;101436.41;;;21.35;68.19
17362;BME280;8798;51.938;4.348;2023-09-19T12:58:48;101390.16;;;21.27;68.63
17362;BME280;8798;51.938;4.348;2023-09-19T13:01:16;101380.91;;;21.28;68.47
17362;BME280;8798;51.938;4.348;2023-09-19T13:03:45;101360.50;;;21.24;68.48
17362;BME280;8798;51.938;4.348;2023-09-19T13:06:14;101307.31;;;21.13;68.20
17362;BME280;8798;51.938;4.348;2023-09-19T13:08:45;101282.53;;;21.08;67.96
17362;BME280;8798;51.938;4.348;2023-09-19T13:11:20;101252.06;;;21.04;68.22
17362;BME280;8798;51.938;4.348;2023-09-19T13:13:51;101227.88;;;21.01;68.33
17362;BME280;8798;51.938;4.348;2023-09-19T13:16:21;101219.69;;;21.01;68.34
17362;BME280;8798;51.938;4.348;2023-09-19T13:18:53;101224.75;;;21.04;68.33
17362;BME280;8798;51.938;4.348;2023-09-19T13:21:32;101225.56;;;21.05;68.03
17362;BME280;8798;51.938;4.348;2023-09-19T13:24:20;101191.75;;;20.99;67.88
17362;BME280;8798;51.938;4.348;2023-09-19T13:26:49;101175.75;;;20.96;68.12
17362;BME280;8798;51.938;4.348;2023-09-19T13:29:18;101167.56;;;20.96;67.81